Time;durP1;ratioP1;P1;durP2;ratioP2;P2;SDS_P1;SDS_P2;PMS_P1;PMS_P2;Temp;Humidity;BMP_temperature;BMP_pressure;BME280_temperature;BME280_humidity;BME280_pressure;Samples;Min_cycle;Max_cycle;Signal;HPM_P1;HPM_P2
2022/08/15 00:02:06;;;;;;;11.68;9.02;;;;;;;;;;5032227;28;20128;-63
2022/08/15 00:04:32;;;;;;;10.82;8.70;;;;;;;;;;5033753;28;20017;-63
2022/08/15 00:06:58;;;;;;;10.77;8.65;;;;;;;;;;5033429;28;20021;-63
2022/08/15 00:09:23;;;;;;;9.43;8.25;;;;;;;;;;5033494;28;20437;-63
2022/08/15 00:11:51;;;;;;;9.48;8.38;;;;;;;;;;5033503;28;20112;-63
2022/08/15 00:14:19;;;;;;;10.18;9.00;;;;;;;;;;5033463;28;20381;-63
2022/08/15 00:16:47;;;;;;;9.60;8.32;;;;;;;;;;5033403;28;20196;-63
2022/08/15 00:19:15;;;;;;;9.25;8.35;;;;;;;;;;5033270;28;20022;-63
2022/08/15 00:21:43;;;;;;;9.48;8.50;;;;;;;;;;5033594;28;20025;-63
2022/08/15 00:24:09;;;;;;;9.98;8.23;;;;;;;;;;5033608;28;20151;-63
2022/08/15 00:26:34;;;;;;;8.90;8.05;;;;;;;;;;5033521;28;20049;-63
2022/08/15 00:29:03;;;;;;;9.52;8.55;;;;;;;;;;5033280;28;20029;-63
2022/08/15 00:31:32;;;;;;;9.50;8.60;;;;;;;;;;5033250;28;20040;-63
2022/08/15 00:33:59;;;;;;;11.88;8.88;;;;;;;;;;5033498;28;20110;-63
2022/08/15 00:36:25;;;;;;;9.70;8.20;;;;;;;;;;5033219;28;20538;-63
2022/08/15 00:38:51;;;;;;;10.40;8.20;;;;;;;;;;5031852;28;20022;-63
2022/08/15 00:44:02;;;;;;;9.70;8.65;;;;;;;;;;5033124;28;20413;-63
2022/08/15 00:46:28;;;;;;;9.98;8.98;;;;;;;;;;5033120;28;20013;-63
2022/08/15 00:48:54;;;;;;;10.75;9.07;;;;;;;;;;5033115;28;20448;-63
2022/08/15 00:51:22;;;;;;;11.07;8.45;;;;;;;;;;5033167;28;20124;-63
2022/08/15 00:53:56;;;;;;;8.88;8.00;;;;;;;;;;5031735;28;20029;-63
2022/08/15 00:56:24;;;;;;;9.50;8.45;;;;;;;;;;5032790;28;20033;-63
2022/08/15 00:58:50;;;;;;;12.57;8.98;;;;;;;;;;5036611;28;20024;-63
2022/08/15 01:01:16;;;;;;;12.77;8.60;;;;;;;;;;5035379;28;20112;-63
2022/08/15 01:03:44;;;;;;;9.95;8.88;;;;;;;;;;5035314;28;20049;-63
2022/08/15 01:06:10;;;;;;;11.93;9.05;;;;;;;;;;5036568;28;20022;-63
2022/08/15 01:08:37;;;;;;;10.35;9.18;;;;;;;;;;5035280;28;20060;-63
2022/08/15 01:11:12;;;;;;;14.80;10.02;;;;;;;;;;5036727;28;20037;-63
2022/08/15 01:13:38;;;;;;;12.10;9.32;;;;;;;;;;5036424;28;20092;-63
2022/08/15 01:16:03;;;;;;;12.15;9.93;;;;;;;;;;5036401;28;20025;-63
2022/08/15 01:18:29;;;;;;;13.20;10.20;;;;;;;;;;5036488;28;20476;-63
2022/08/15 01:20:56;;;;;;;12.85;10.00;;;;;;;;;;5036289;28;20018;-63
2022/08/15 01:23:44;;;;;;;11.43;9.43;;;;;;;;;;5068200;28;20030;-63
2022/08/15 01:26:13;;;;;;;12.25;9.63;;;;;;;;;;4998438;28;20041;-63
2022/08/15 01:28:42;;;;;;;10.55;9.45;;;;;;;;;;5034866;28;20164;-63
2022/08/15 01:31:11;;;;;;;10.77;9.35;;;;;;;;;;5034822;28;20034;-63
2022/08/15 01:33:39;;;;;;;10.93;9.63;;;;;;;;;;5018425;28;20021;-63
2022/08/15 01:36:05;;;;;;;11.07;9.07;;;;;;;;;;5034719;28;20504;-63
2022/08/15 01:38:33;;;;;;;11.98;9.70;;;;;;;;;;5035859;28;20026;-63
2022/08/15 01:41:21;;;;;;;10.68;9.32;;;;;;;;;;5034609;28;20030;-63
2022/08/15 01:43:52;;;;;;;9.65;8.65;;;;;;;;;;5034578;28;20032;-63
2022/08/15 01:46:20;;;;;;;10.75;9.15;;;;;;;;;;5036068;28;20041;-63
2022/08/15 01:48:49;;;;;;;9.90;8.90;;;;;;;;;;5034493;28;20017;-63
2022/08/15 01:51:17;;;;;;;10.32;8.60;;;;;;;;;;5034227;28;20136;-63
2022/08/15 01:53:55;;;;;;;9.88;8.77;;;;;;;;;;5034396;28;20079;-63
2022/08/15 01:56:26;;;;;;;10.95;9.40;;;;;;;;;;5034339;28;20033;-63
2022/08/15 01:58:52;;;;;;;10.77;9.43;;;;;;;;;;5034489;28;20106;-63
2022/08/15 02:01:19;;;;;;;10.68;9.60;;;;;;;;;;5034276;28;20477;-63
2022/08/15 02:03:46;;;;;;;11.25;8.77;;;;;;;;;;5018399;28;20033;-63
2022/08/15 02:06:15;;;;;;;15.25;9.30;;;;;;;;;;5017641;28;20025;-63
2022/08/15 02:08:43;;;;;;;10.45;8.90;;;;;;;;;;5033667;28;20485;-63
2022/08/15 02:11:10;;;;;;;10.73;8.35;;;;;;;;;;5034100;28;20021;-63
2022/08/15 02:13:41;;;;;;;10.90;8.45;;;;;;;;;;5035581;28;20033;-63
2022/08/15 02:16:06;;;;;;;9.82;8.60;;;;;;;;;;5034007;28;20040;-62
2022/08/15 02:18:32;;;;;;;9.80;8.63;;;;;;;;;;5035136;28;20378;-63
2022/08/15 02:20:57;;;;;;;12.77;8.95;;;;;;;;;;5033900;28;20029;-63
2022/08/15 02:23:23;;;;;;;10.20;8.52;;;;;;;;;;5035421;28;20021;-63
2022/08/15 02:25:51;;;;;;;10.63;8.10;;;;;;;;;;5033808;28;20103;-63
2022/08/15 02:28:17;;;;;;;11.50;8.57;;;;;;;;;;5033747;28;20017;-63
2022/08/15 02:30:42;;;;;;;9.48;8.52;;;;;;;;;;5033728;28;20052;-63
2022/08/15 02:33:08;;;;;;;15.05;9.80;;;;;;;;;;5033718;28;20517;-63
2022/08/15 02:35:36;;;;;;;33.28;13.68;;;;;;;;;;5033660;28;20076;-63
2022/08/15 02:38:05;;;;;;;19.33;10.90;;;;;;;;;;5034084;28;20350;-63
2022/08/15 02:40:31;;;;;;;21.23;11.10;;;;;;;;;;5033476;28;20039;-63
2022/08/15 02:43:07;;;;;;;24.17;12.20;;;;;;;;;;5034776;28;20021;-63
2022/08/15 02:45:37;;;;;;;18.98;9.18;;;;;;;;;;5034660;28;20409;-63
2022/08/15 02:48:06;;;;;;;14.82;9.57;;;;;;;;;;5033403;28;20037;-63
2022/08/15 02:50:33;;;;;;;28.33;15.13;;;;;;;;;;5034883;28;20075;-63
2022/08/15 02:53:00;;;;;;;11.93;8.45;;;;;;;;;;5016627;28;20045;-63
2022/08/15 02:55:26;;;;;;;9.63;7.88;;;;;;;;;;5049729;28;20022;-63
2022/08/15 02:57:52;;;;;;;12.10;9.25;;;;;;;;;;5033771;28;20025;-63
2022/08/15 03:00:17;;;;;;;41.53;20.42;;;;;;;;;;5033068;28;20056;-63
2022/08/15 03:02:54;;;;;;;46.78;22.10;;;;;;;;;;5033081;28;20017;-63
2022/08/15 03:05:27;;;;;;;24.25;14.18;;;;;;;;;;5033912;28;20028;-63
2022/08/15 03:07:53;;;;;;;23.55;14.15;;;;;;;;;;5032984;28;20032;-63
2022/08/15 03:10:19;;;;;;;75.53;28.65;;;;;;;;;;5034242;28;20072;-63
2022/08/15 03:12:50;;;;;;;27.00;15.43;;;;;;;;;;5034182;28;20025;-63
2022/08/15 03:15:16;;;;;;;21.25;12.45;;;;;;;;;;5032874;28;20060;-63
2022/08/15 03:17:42;;;;;;;18.67;12.52;;;;;;;;;;5032806;28;20060;-63
2022/08/15 03:20:09;;;;;;;17.33;11.98;;;;;;;;;;5032830;28;20038;-63
2022/08/15 03:22:46;;;;;;;15.90;10.13;;;;;;;;;;5034327;28;20013;-63
2022/08/15 03:25:12;;;;;;;17.20;10.32;;;;;;;;;;5032683;28;20033;-63
2022/08/15 03:27:40;;;;;;;11.80;10.50;;;;;;;;;;5032677;28;20504;-63
2022/08/15 03:30:07;;;;;;;14.30;10.00;;;;;;;;;;5033955;28;20033;-63
2022/08/15 03:32:48;;;;;;;46.13;22.70;;;;;;;;;;5016626;28;20144;-63
2022/08/15 03:35:14;;;;;;;25.33;15.30;;;;;;;;;;5033836;28;20029;-63
2022/08/15 03:37:39;;;;;;;17.58;12.07;;;;;;;;;;5033802;28;20025;-63
2022/08/15 03:40:05;;;;;;;22.13;14.23;;;;;;;;;;5033696;28;20049;-62
2022/08/15 03:42:35;;;;;;;23.75;15.50;;;;;;;;;;5032801;28;20017;-63
2022/08/15 03:45:02;;;;;;;23.23;16.17;;;;;;;;;;5066096;28;20033;-63
2022/08/15 03:47:28;;;;;;;23.95;16.38;;;;;;;;;;5032495;28;20359;-63
2022/08/15 03:49:54;;;;;;;21.50;15.65;;;;;;;;;;5033649;28;20075;-62
2022/08/15 03:52:20;;;;;;;18.77;13.55;;;;;;;;;;5032152;28;20045;-63
2022/08/15 03:54:46;;;;;;;13.82;11.82;;;;;;;;;;5033913;28;20192;-63
2022/08/15 03:57:12;;;;;;;13.55;11.35;;;;;;;;;;5034107;28;20030;-63
2022/08/15 03:59:37;;;;;;;15.27;11.43;;;;;;;;;;5032216;28;20481;-63
2022/08/15 04:02:05;;;;;;;18.05;12.10;;;;;;;;;;5032270;28;20016;-63
2022/08/15 04:04:33;;;;;;;15.35;11.98;;;;;;;;;;5033472;28;20029;-63
2022/08/15 04:06:58;;;;;;;12.77;11.48;;;;;;;;;;5032232;28;20017;-63
2022/08/15 04:09:24;;;;;;;14.80;13.02;;;;;;;;;;5032193;28;20502;-63
2022/08/15 04:11:49;;;;;;;20.52;17.40;;;;;;;;;;5032187;28;20029;-62
2022/08/15 04:14:28;;;;;;;23.75;19.52;;;;;;;;;;5032646;28;20379;-63
2022/08/15 04:16:59;;;;;;;22.70;18.27;;;;;;;;;;5032160;28;20432;-63
2022/08/15 04:19:25;;;;;;;18.83;15.80;;;;;;;;;;5032065;28;20060;-63
2022/08/15 04:21:51;;;;;;;18.73;14.13;;;;;;;;;;5032355;28;20116;-63
2022/08/15 04:24:17;;;;;;;14.98;12.48;;;;;;;;;;5032060;28;20029;-63
2022/08/15 04:26:44;;;;;;;13.75;11.23;;;;;;;;;;5032024;28;20022;-63
2022/08/15 04:29:10;;;;;;;17.90;12.70;;;;;;;;;;5033318;28;20018;-63
2022/08/15 04:31:35;;;;;;;17.02;12.05;;;;;;;;;;5035160;28;20036;-63
2022/08/15 04:34:03;;;;;;;19.17;13.40;;;;;;;;;;5037458;28;20021;-63
2022/08/15 04:36:30;;;;;;;14.60;12.32;;;;;;;;;;5036192;28;20034;-63
2022/08/15 04:38:55;;;;;;;19.98;13.65;;;;;;;;;;5035786;28;20105;-63
2022/08/15 04:41:21;;;;;;;18.13;13.82;;;;;;;;;;5035782;28;20029;-63
2022/08/15 04:43:47;;;;;;;16.45;13.10;;;;;;;;;;5035752;28;20032;-63
2022/08/15 04:46:18;;;;;;;16.58;12.85;;;;;;;;;;5035702;28;20078;-63
2022/08/15 04:48:44;;;;;;;14.30;11.90;;;;;;;;;;5035635;28;20032;-63
2022/08/15 04:51:09;;;;;;;16.05;12.15;;;;;;;;;;5035423;28;20037;-63
2022/08/15 04:53:36;;;;;;;15.55;11.23;;;;;;;;;;5036807;28;20446;-63
2022/08/15 04:56:05;;;;;;;16.80;11.98;;;;;;;;;;5035511;28;20082;-63
2022/08/15 04:58:34;;;;;;;13.77;10.70;;;;;;;;;;5019477;28;20029;-63
2022/08/15 05:01:02;;;;;;;12.50;11.20;;;;;;;;;;5035379;28;20075;-63
2022/08/15 05:03:33;;;;;;;13.68;11.32;;;;;;;;;;5035915;28;20021;-63
2022/08/15 05:06:00;;;;;;;17.17;11.57;;;;;;;;;;5036528;28;20489;-63
2022/08/15 05:08:28;;;;;;;14.55;10.70;;;;;;;;;;5035849;28;20044;-63
2022/08/15 05:10:56;;;;;;;13.10;10.85;;;;;;;;;;5036088;28;20022;-63
2022/08/15 05:13:26;;;;;;;14.68;11.30;;;;;;;;;;5035206;28;20017;-63
2022/08/15 05:15:53;;;;;;;16.33;11.30;;;;;;;;;;5035687;28;20055;-63
2022/08/15 05:18:19;;;;;;;15.45;11.98;;;;;;;;;;5035312;28;20100;-63
2022/08/15 05:20:45;;;;;;;17.02;12.15;;;;;;;;;;5035604;28;20104;-62
2022/08/15 05:23:14;;;;;;;15.20;11.52;;;;;;;;;;5035031;28;20071;-63
2022/08/15 05:25:50;;;;;;;13.60;11.27;;;;;;;;;;5034987;28;20112;-63
2022/08/15 05:28:17;;;;;;;17.20;13.98;;;;;;;;;;5035502;28;20029;-63
2022/08/15 05:30:42;;;;;;;17.90;13.50;;;;;;;;;;5034840;28;20064;-63
2022/08/15 05:33:12;;;;;;;16.98;14.07;;;;;;;;;;5034819;28;20053;-62
2022/08/15 05:35:41;;;;;;;19.17;14.60;;;;;;;;;;5034791;28;20021;-63
2022/08/15 05:38:09;;;;;;;22.77;15.88;;;;;;;;;;5036039;28;20469;-62
2022/08/15 05:40:43;;;;;;;22.02;15.85;;;;;;;;;;5036244;28;20104;-63
2022/08/15 05:43:28;;;;;;;21.33;14.88;;;;;;;;;;5035295;28;20029;-62
2022/08/15 05:46:00;;;;;;;20.15;13.73;;;;;;;;;;5005158;28;20038;-63
2022/08/15 05:48:29;;;;;;;16.33;11.90;;;;;;;;;;5034804;28;20508;-62
2022/08/15 05:51:13;;;;;;;16.35;13.40;;;;;;;;;;5035113;28;20039;-63
2022/08/15 05:54:02;;;;;;;17.67;12.98;;;;;;;;;;5035006;28;20029;-62
2022/08/15 05:56:31;;;;;;;18.08;13.88;;;;;;;;;;5036172;28;20022;-62
2022/08/15 05:59:09;;;;;;;19.50;13.77;;;;;;;;;;5035821;28;20014;-63
2022/08/15 06:01:38;;;;;;;17.45;12.30;;;;;;;;;;5034319;28;20065;-63
2022/08/15 06:04:09;;;;;;;17.45;13.05;;;;;;;;;;5035130;28;20018;-63
2022/08/15 06:06:36;;;;;;;16.27;13.07;;;;;;;;;;5034229;28;20033;-62
2022/08/15 06:09:06;;;;;;;16.30;12.98;;;;;;;;;;5035413;28;20029;-62
2022/08/15 06:11:39;;;;;;;16.67;12.33;;;;;;;;;;5035662;28;20034;-63
2022/08/15 06:14:24;;;;;;;18.33;12.90;;;;;;;;;;5067442;28;20587;-63
2022/08/15 06:16:52;;;;;;;15.27;12.63;;;;;;;;;;5035543;28;20029;-62
2022/08/15 06:19:24;;;;;;;16.90;12.40;;;;;;;;;;5033931;28;20017;-63
2022/08/15 06:22:00;;;;;;;17.38;13.38;;;;;;;;;;5033951;28;20087;-63
2022/08/15 06:24:32;;;;;;;19.27;14.48;;;;;;;;;;5033918;28;20362;-62
2022/08/15 06:27:01;;;;;;;24.02;16.67;;;;;;;;;;5035392;28;20025;-62
2022/08/15 06:29:33;;;;;;;20.50;15.00;;;;;;;;;;5033795;28;20037;-63
2022/08/15 06:32:09;;;;;;;22.70;15.57;;;;;;;;;;5034288;28;20036;-62
2022/08/15 06:34:42;;;;;;;20.70;14.80;;;;;;;;;;5033684;28;20401;-63
2022/08/15 06:37:07;;;;;;;23.98;16.90;;;;;;;;;;5033658;28;20393;-62
2022/08/15 06:39:45;;;;;;;19.90;14.70;;;;;;;;;;5033500;28;20025;-62
2022/08/15 06:42:43;;;;;;;21.30;14.85;;;;;;;;;;5033493;28;20112;-62
2022/08/15 06:45:11;;;;;;;;;;;;;;;;;;4992331;28;20030;-63
2022/08/15 06:47:37;;;;;;;23.65;15.77;;;;;;;;;;5033441;28;19912;-63
2022/08/15 06:50:11;;;;;;;23.80;16.50;;;;;;;;;;5033403;28;20033;-63
2022/08/15 06:52:37;;;;;;;21.52;15.57;;;;;;;;;;5033159;28;20567;-62
2022/08/15 06:55:03;;;;;;;20.40;15.48;;;;;;;;;;5035038;28;20025;-62
2022/08/15 06:57:33;;;;;;;18.63;14.10;;;;;;;;;;5033234;28;20029;-62
2022/08/15 07:00:02;;;;;;;23.35;15.52;;;;;;;;;;5033146;28;20029;-63
2022/08/15 07:02:54;;;;;;;19.05;14.43;;;;;;;;;;5033407;28;20377;-63
2022/08/15 07:05:24;;;;;;;23.20;15.20;;;;;;;;;;5033119;28;20091;-62
2022/08/15 07:08:08;;;;;;;19.65;14.32;;;;;;;;;;5033080;28;20026;-63
2022/08/15 07:11:09;;;;;;;20.95;14.70;;;;;;;;;;5033880;28;20040;-63
2022/08/15 07:13:45;;;;;;;17.80;13.90;;;;;;;;;;5019968;28;20047;-62
2022/08/15 07:16:19;;;;;;;20.33;14.00;;;;;;;;;;5034029;28;20103;-63
2022/08/15 07:18:46;;;;;;;17.38;13.75;;;;;;;;;;5034333;28;20030;-63
2022/08/15 07:21:29;;;;;;;18.80;14.48;;;;;;;;;;5033092;28;20466;-62
2022/08/15 07:23:59;;;;;;;21.63;15.55;;;;;;;;;;5066274;28;20037;-63
2022/08/15 07:26:28;;;;;;;21.95;15.68;;;;;;;;;;5032756;28;20026;-63
2022/08/15 07:28:55;;;;;;;18.25;13.98;;;;;;;;;;5033241;28;20060;-62
2022/08/15 07:31:25;;;;;;;17.98;13.95;;;;;;;;;;5032677;28;20429;-63
2022/08/15 07:33:51;;;;;;;18.75;13.95;;;;;;;;;;5032650;28;20038;-63
2022/08/15 07:36:27;;;;;;;19.45;14.75;;;;;;;;;;5032613;28;20362;-62
2022/08/15 07:38:55;;;;;;;20.83;14.52;;;;;;;;;;5033047;28;20112;-62
2022/08/15 07:41:30;;;;;;;18.42;15.55;;;;;;;;;;5032511;28;20381;-63
2022/08/15 07:44:14;;;;;;;16.85;14.35;;;;;;;;;;5032446;28;20117;-63
2022/08/15 07:46:48;;;;;;;20.33;14.65;;;;;;;;;;5032435;28;20032;-62
2022/08/15 07:49:20;;;;;;;21.52;16.02;;;;;;;;;;5032693;28;20025;-62
2022/08/15 07:51:58;;;;;;;18.92;14.23;;;;;;;;;;5033788;28;20382;-63
2022/08/15 07:54:41;;;;;;;17.23;12.73;;;;;;;;;;5032638;28;20043;-62
2022/08/15 07:57:17;;;;;;;13.50;11.60;;;;;;;;;;5032296;28;20036;-62
2022/08/15 08:00:00;;;;;;;16.15;13.73;;;;;;;;;;5033775;28;20033;-63
2022/08/15 08:02:44;;;;;;;14.70;12.00;;;;;;;;;;5033565;28;20428;-63
2022/08/15 08:05:12;;;;;;;11.35;9.88;;;;;;;;;;5035293;28;20108;-63
2022/08/15 08:07:49;;;;;;;14.88;12.23;;;;;;;;;;5038854;28;20461;-62
2022/08/15 08:10:31;;;;;;;12.02;10.10;;;;;;;;;;5038815;28;20033;-63
2022/08/15 08:13:03;;;;;;;14.77;11.23;;;;;;;;;;5038817;28;20033;-63
2022/08/15 08:15:48;;;;;;;12.82;10.88;;;;;;;;;;5038787;28;20097;-62
2022/08/15 08:18:26;;;;;;;16.33;11.68;;;;;;;;;;5072983;28;20063;-63
2022/08/15 08:20:53;;;;;;;15.23;12.95;;;;;;;;;;5038730;28;20087;-63
2022/08/15 08:23:26;;;;;;;13.20;11.68;;;;;;;;;;5039004;28;20101;-63
2022/08/15 08:25:57;;;;;;;12.32;10.90;;;;;;;;;;5038682;28;20078;-62
2022/08/15 08:28:28;;;;;;;14.45;10.75;;;;;;;;;;5040472;28;20026;-63
2022/08/15 08:30:55;;;;;;;;;;;;;;;;;;5039368;28;20044;-62
2022/08/15 08:33:32;;;;;;;13.32;10.95;;;;;;;;;;5040374;28;19909;-63
2022/08/15 08:36:05;;;;;;;12.25;9.13;;;;;;;;;;5039269;28;20108;-62
2022/08/15 08:38:31;;;;;;;12.90;10.40;;;;;;;;;;5040003;28;20086;-63
2022/08/15 08:43:46;;;;;;;16.63;11.38;;;;;;;;;;5040085;28;20048;-62
2022/08/15 08:46:23;;;;;;;11.82;10.50;;;;;;;;;;5040031;28;20441;-62
2022/08/15 08:48:49;;;;;;;12.27;11.00;;;;;;;;;;5039715;28;20079;-62
2022/08/15 08:51:17;;;;;;;12.25;10.43;;;;;;;;;;5039777;28;20046;-63
2022/08/15 08:54:01;;;;;;;16.00;11.30;;;;;;;;;;5039937;28;20381;-63
2022/08/15 08:56:33;;;;;;;13.02;10.98;;;;;;;;;;5040228;28;20086;-63
2022/08/15 08:59:05;;;;;;;12.82;11.48;;;;;;;;;;5039876;28;20393;-62
2022/08/15 09:01:32;;;;;;;12.57;10.95;;;;;;;;;;5039919;28;20519;-63
2022/08/15 09:04:03;;;;;;;12.18;9.73;;;;;;;;;;5039528;28;20049;-63
2022/08/15 09:06:33;;;;;;;12.55;10.60;;;;;;;;;;5039585;28;20030;-62
2022/08/15 09:09:07;;;;;;;11.15;10.05;;;;;;;;;;5040168;28;20040;-63
2022/08/15 09:11:38;;;;;;;12.05;10.75;;;;;;;;;;5038241;28;20025;-63
2022/08/15 09:14:24;;;;;;;14.05;11.32;;;;;;;;;;5039543;28;20030;-63
2022/08/15 09:16:51;;;;;;;14.23;11.85;;;;;;;;;;5036482;28;20405;-62
2022/08/15 09:19:28;;;;;;;12.45;9.50;;;;;;;;;;5036341;28;20052;-63
2022/08/15 09:21:53;;;;;;;13.13;10.63;;;;;;;;;;5036385;28;20026;-63
2022/08/15 09:24:21;;;;;;;8.02;7.18;;;;;;;;;;5035423;28;20112;-63
2022/08/15 09:27:02;;;;;;;11.15;9.48;;;;;;;;;;5036199;28;20025;-62
2022/08/15 09:29:29;;;;;;;11.40;9.00;;;;;;;;;;5036145;28;20030;-63
2022/08/15 09:32:08;;;;;;;9.35;8.40;;;;;;;;;;5036741;28;20026;-63
2022/08/15 09:34:36;;;;;;;12.10;9.15;;;;;;;;;;5036308;28;20034;-63
2022/08/15 09:37:14;;;;;;;11.10;8.70;;;;;;;;;;5036291;28;20124;-63
2022/08/15 09:39:45;;;;;;;10.93;8.95;;;;;;;;;;5036198;28;20450;-62
2022/08/15 09:42:18;;;;;;;13.85;9.57;;;;;;;;;;5035940;28;20029;-62
2022/08/15 09:44:46;;;;;;;10.70;9.63;;;;;;;;;;5035944;28;20061;-62
2022/08/15 09:47:30;;;;;;;14.43;13.02;;;;;;;;;;5036100;28;20089;-63
2022/08/15 09:49:55;;;;;;;11.40;8.85;;;;;;;;;;5036061;28;20079;-63
2022/08/15 09:52:35;;;;;;;7.72;6.78;;;;;;;;;;5035556;28;20058;-62
2022/08/15 09:55:20;;;;;;;10.15;9.00;;;;;;;;;;5035009;28;20381;-63
2022/08/15 09:57:51;;;;;;;10.68;8.82;;;;;;;;;;5036217;28;20034;-62
2022/08/15 10:00:24;;;;;;;10.02;8.85;;;;;;;;;;5034423;28;20432;-63
2022/08/15 10:02:51;;;;;;;10.20;8.15;;;;;;;;;;5035541;28;20035;-63
2022/08/15 10:05:35;;;;;;;10.15;9.15;;;;;;;;;;5036116;28;20368;-63
2022/08/15 10:08:02;;;;;;;8.98;8.07;;;;;;;;;;5034237;28;20505;-63
2022/08/15 10:10:37;;;;;;;9.85;8.52;;;;;;;;;;5035691;28;20101;-63
2022/08/15 10:13:21;;;;;;;9.68;8.32;;;;;;;;;;5035935;28;20479;-63
2022/08/15 10:15:47;;;;;;;7.75;6.47;;;;;;;;;;5035641;28;20037;-63
2022/08/15 10:18:21;;;;;;;7.80;7.00;;;;;;;;;;5035588;28;20457;-63
2022/08/15 10:20:48;;;;;;;9.15;7.35;;;;;;;;;;5035515;28;20052;-63
2022/08/15 10:23:15;;;;;;;9.98;8.98;;;;;;;;;;5035474;28;20025;-63
2022/08/15 10:25:42;;;;;;;8.70;7.80;;;;;;;;;;5035358;28;20029;-63
2022/08/15 10:28:10;;;;;;;6.88;6.22;;;;;;;;;;5034763;28;20025;-63
2022/08/15 10:30:52;;;;;;;12.65;9.00;;;;;;;;;;5035013;28;20053;-63
2022/08/15 10:33:33;;;;;;;11.65;8.35;;;;;;;;;;5034113;28;20101;-63
2022/08/15 10:36:06;;;;;;;7.05;5.97;;;;;;;;;;5035235;28;20354;-63
2022/08/15 10:38:32;;;;;;;10.20;8.60;;;;;;;;;;5034783;28;20087;-63
2022/08/15 10:41:16;;;;;;;9.32;8.25;;;;;;;;;;5035121;28;20087;-63
2022/08/15 10:43:47;;;;;;;10.00;8.50;;;;;;;;;;5017056;28;20484;-63
2022/08/15 10:46:21;;;;;;;13.68;9.60;;;;;;;;;;5034700;28;20034;-63
2022/08/15 10:49:01;;;;;;;11.25;9.50;;;;;;;;;;5033434;28;20030;-63
2022/08/15 10:51:37;;;;;;;10.82;9.60;;;;;;;;;;5034882;28;20136;-63
2022/08/15 10:54:02;;;;;;;12.50;11.20;;;;;;;;;;5034860;28;20038;-63
2022/08/15 10:56:33;;;;;;;10.93;9.60;;;;;;;;;;5034806;28;20031;-63
2022/08/15 10:59:05;;;;;;;11.25;9.48;;;;;;;;;;5034382;28;20512;-63
2022/08/15 11:01:32;;;;;;;10.30;8.75;;;;;;;;;;5033524;28;20036;-63
2022/08/15 11:04:03;;;;;;;14.13;9.40;;;;;;;;;;5034690;28;20017;-63
2022/08/15 11:06:28;;;;;;;;;;;;;;;;;;5034725;28;20068;-63
2022/08/15 11:08:55;;;;;;;13.18;8.95;;;;;;;;;;5034878;28;19944;-63
2022/08/15 11:11:23;;;;;;;9.25;7.72;;;;;;;;;;5035078;28;20029;-63
2022/08/15 11:13:53;;;;;;;12.80;10.63;;;;;;;;;;5034508;28;20018;-63
2022/08/15 11:16:27;;;;;;;12.20;10.10;;;;;;;;;;5034406;28;20037;-63
2022/08/15 11:18:54;;;;;;;13.40;11.68;;;;;;;;;;5034093;28;20034;-63
2022/08/15 11:21:32;;;;;;;11.25;10.15;;;;;;;;;;5034088;28;20018;-63
2022/08/15 11:24:07;;;;;;;15.32;11.20;;;;;;;;;;5034303;28;20064;-63
2022/08/15 11:26:35;;;;;;;13.40;11.77;;;;;;;;;;5034592;28;20036;-63
2022/08/15 11:29:17;;;;;;;13.50;11.00;;;;;;;;;;5035011;28;20022;-63
2022/08/15 11:31:45;;;;;;;12.10;10.00;;;;;;;;;;5033912;28;20116;-63
2022/08/15 11:34:18;;;;;;;13.40;11.05;;;;;;;;;;5034459;28;20025;-63
2022/08/15 11:36:44;;;;;;;11.65;10.32;;;;;;;;;;5032636;28;20028;-63
2022/08/15 11:39:13;;;;;;;11.35;9.52;;;;;;;;;;5033584;28;20381;-63
2022/08/15 11:41:41;;;;;;;13.88;10.60;;;;;;;;;;5032108;28;20433;-63
2022/08/15 11:44:09;;;;;;;15.07;11.45;;;;;;;;;;5033731;28;20021;-63
2022/08/15 11:46:35;;;;;;;12.73;11.30;;;;;;;;;;5033710;28;20386;-63
2022/08/15 11:49:11;;;;;;;12.60;9.90;;;;;;;;;;5034254;28;20075;-63
2022/08/15 11:51:40;;;;;;;14.18;10.48;;;;;;;;;;5033848;28;20053;-63
2022/08/15 11:54:05;;;;;;;14.13;10.68;;;;;;;;;;5033662;28;20155;-63
2022/08/15 11:56:49;;;;;;;12.63;10.18;;;;;;;;;;5033004;28;20124;-63
2022/08/15 11:59:20;;;;;;;12.40;10.85;;;;;;;;;;5034039;28;20408;-63
2022/08/15 12:02:06;;;;;;;13.10;11.70;;;;;;;;;;5032402;28;20025;-63
2022/08/15 12:04:33;;;;;;;11.77;9.88;;;;;;;;;;5023153;28;20473;-63
2022/08/15 12:07:06;;;;;;;13.73;9.65;;;;;;;;;;5032619;28;20369;-63
2022/08/15 12:09:32;;;;;;;11.65;8.93;;;;;;;;;;5033527;28;20034;-63
2022/08/15 12:11:58;;;;;;;13.88;10.20;;;;;;;;;;5032445;28;20022;-63
2022/08/15 12:14:25;;;;;;;12.07;10.20;;;;;;;;;;5033449;28;20470;-63
2022/08/15 12:16:50;;;;;;;14.00;10.52;;;;;;;;;;5033713;28;20026;-63
2022/08/15 12:19:28;;;;;;;14.15;10.20;;;;;;;;;;5033302;28;20041;-63
2022/08/15 12:21:54;;;;;;;11.00;9.90;;;;;;;;;;5033628;28;20418;-63
2022/08/15 12:24:22;;;;;;;14.70;10.35;;;;;;;;;;5033386;28;20060;-62
2022/08/15 12:26:47;;;;;;;14.23;10.55;;;;;;;;;;5033626;28;20030;-63
2022/08/15 12:29:13;;;;;;;11.32;10.02;;;;;;;;;;5033309;28;20079;-63
2022/08/15 12:31:40;;;;;;;11.57;9.80;;;;;;;;;;5033312;28;20116;-63
2022/08/15 12:34:09;;;;;;;12.25;10.43;;;;;;;;;;5032387;28;20018;-63
2022/08/15 12:36:35;;;;;;;10.48;9.38;;;;;;;;;;5033504;28;20033;-63
2022/08/15 12:39:00;;;;;;;13.98;10.68;;;;;;;;;;5033400;28;20022;-63
2022/08/15 12:41:26;;;;;;;13.73;10.25;;;;;;;;;;5033432;28;20128;-63
2022/08/15 12:43:52;;;;;;;14.82;10.75;;;;;;;;;;5032013;28;20036;-63
2022/08/15 12:46:18;;;;;;;11.88;10.68;;;;;;;;;;5033636;28;20064;-63
2022/08/15 12:48:47;;;;;;;10.80;9.80;;;;;;;;;;5033383;28;20024;-63
2022/08/15 12:51:13;;;;;;;12.35;10.00;;;;;;;;;;5032450;28;20482;-63
2022/08/15 12:53:38;;;;;;;10.30;9.15;;;;;;;;;;5036836;28;20026;-63
2022/08/15 12:56:06;;;;;;;10.93;9.75;;;;;;;;;;5037333;28;20113;-63
2022/08/15 12:58:31;;;;;;;11.35;9.63;;;;;;;;;;5036976;28;20453;-63
2022/08/15 13:00:57;;;;;;;13.13;9.23;;;;;;;;;;5036729;28;20036;-63
2022/08/15 13:03:25;;;;;;;10.07;8.98;;;;;;;;;;5036939;28;20044;-63
2022/08/15 13:05:53;;;;;;;12.30;9.95;;;;;;;;;;5036693;28;20087;-63
2022/08/15 13:08:19;;;;;;;10.40;9.40;;;;;;;;;;5036901;28;20021;-63
2022/08/15 13:10:44;;;;;;;10.07;9.15;;;;;;;;;;5036503;28;20034;-63
2022/08/15 13:13:11;;;;;;;13.68;9.95;;;;;;;;;;5036483;28;20462;-63
2022/08/15 13:15:37;;;;;;;9.77;8.77;;;;;;;;;;5036431;28;20030;-63
2022/08/15 13:18:03;;;;;;;14.85;8.93;;;;;;;;;;5037073;28;20026;-63
2022/08/15 13:25:56;;;;;;;9.88;8.48;;;;;;;;;;5036494;28;20032;-63
2022/08/15 13:28:22;;;;;;;9.57;8.57;;;;;;;;;;5036518;28;20018;-63
2022/08/15 13:30:49;;;;;;;11.73;9.10;;;;;;;;;;5036160;28;20029;-63
2022/08/15 13:33:15;;;;;;;10.07;9.07;;;;;;;;;;5036160;28;20052;-63
2022/08/15 13:35:40;;;;;;;9.80;8.60;;;;;;;;;;5036260;28;20022;-63
2022/08/15 13:38:06;;;;;;;10.70;8.60;;;;;;;;;;5068151;28;20369;-63
2022/08/15 13:40:32;;;;;;;8.90;8.00;;;;;;;;;;5036207;28;20033;-63
2022/08/15 13:42:59;;;;;;;13.75;9.13;;;;;;;;;;5035224;28;20029;-63
2022/08/15 13:45:26;;;;;;;10.85;9.38;;;;;;;;;;5035797;28;20051;-63
2022/08/15 13:47:51;;;;;;;12.70;8.93;;;;;;;;;;5034817;28;20020;-63
2022/08/15 13:50:17;;;;;;;10.10;9.05;;;;;;;;;;5036202;28;20030;-63
2022/08/15 13:52:43;;;;;;;11.85;9.23;;;;;;;;;;5035635;28;20045;-63
2022/08/15 13:55:09;;;;;;;13.40;9.95;;;;;;;;;;5034519;28;20543;-63
2022/08/15 13:57:34;;;;;;;9.73;8.73;;;;;;;;;;5035977;28;20025;-63
2022/08/15 14:00:00;;;;;;;8.90;8.05;;;;;;;;;;5035595;28;20032;-63
2022/08/15 14:02:27;;;;;;;14.55;9.27;;;;;;;;;;5035291;28;20018;-63
2022/08/15 14:04:54;;;;;;;10.65;9.55;;;;;;;;;;5035524;28;20022;-63
2022/08/15 14:07:19;;;;;;;13.27;9.40;;;;;;;;;;5035571;28;20028;-63
2022/08/15 14:09:44;;;;;;;13.18;9.63;;;;;;;;;;5034205;28;20409;-63
2022/08/15 14:12:10;;;;;;;9.98;8.98;;;;;;;;;;5035720;28;20079;-63
2022/08/15 14:14:36;;;;;;;10.18;9.18;;;;;;;;;;5034225;28;20037;-63
2022/08/15 14:17:01;;;;;;;10.75;9.50;;;;;;;;;;5035337;28;20095;-63
2022/08/15 14:19:28;;;;;;;11.07;8.90;;;;;;;;;;5035741;28;20025;-63
2022/08/15 14:21:53;;;;;;;10.48;9.25;;;;;;;;;;5035776;28;20028;-63
2022/08/15 14:24:19;;;;;;;11.98;10.10;;;;;;;;;;5033963;28;20124;-63
2022/08/15 14:26:46;;;;;;;10.18;9.10;;;;;;;;;;5035464;28;20026;-63
2022/08/15 14:29:15;;;;;;;12.40;10.10;;;;;;;;;;5035419;28;20025;-63
2022/08/15 14:31:40;;;;;;;10.82;9.13;;;;;;;;;;5035336;28;20018;-63
2022/08/15 14:34:07;;;;;;;11.40;9.90;;;;;;;;;;5035250;28;20031;-63
2022/08/15 14:36:33;;;;;;;9.70;8.65;;;;;;;;;;5034953;28;20022;-63
2022/08/15 14:38:59;;;;;;;11.07;9.18;;;;;;;;;;5034816;28;20068;-63
2022/08/15 14:41:24;;;;;;;11.23;9.07;;;;;;;;;;5035426;28;20053;-63
2022/08/15 14:43:50;;;;;;;11.38;9.65;;;;;;;;;;5035049;28;20045;-63
2022/08/15 14:46:16;;;;;;;11.65;9.48;;;;;;;;;;5033624;28;20539;-63
2022/08/15 14:48:42;;;;;;;11.32;8.43;;;;;;;;;;5034925;28;20112;-63
2022/08/15 14:51:11;;;;;;;9.70;8.70;;;;;;;;;;5034519;28;20088;-63
2022/08/15 14:53:37;;;;;;;10.75;8.75;;;;;;;;;;5035461;28;20168;-63